Time;durP1;ratioP1;P1;durP2;ratioP2;P2;SDS_P1;SDS_P2;PMS_P1;PMS_P2;Temp;Humidity;BMP_temperature;BMP_pressure;BME280_temperature;BME280_humidity;BME280_pressure;Samples;Min_cycle;Max_cycle;Signal;HPM_P1;HPM_P2
2023/07/30 00:01:55;;;;;;;6.43;5.87;;;18.30;1.00;;;;;;5117276;28;20180;-46
2023/07/30 00:04:21;;;;;;;6.37;5.70;;;18.20;1.00;;;;;;5116641;28;20565;-47
2023/07/30 00:06:47;;;;;;;6.20;5.60;;;18.20;1.00;;;;;;5117467;28;20255;-45
2023/07/30 00:09:12;;;;;;;8.37;6.90;;;18.20;1.00;;;;;;5117036;28;20591;-46
2023/07/30 00:11:38;;;;;;;7.23;6.23;;;18.20;1.00;;;;;;5117548;28;20286;-45
2023/07/30 00:14:04;;;;;;;6.77;5.57;;;18.20;1.00;;;;;;5117104;28;20382;-47
2023/07/30 00:16:30;;;;;;;6.20;5.60;;;18.30;1.00;;;;;;5116993;28;20184;-46
2023/07/30 00:18:56;;;;;;;6.53;5.93;;;18.30;1.00;;;;;;5115509;28;20649;-46
2023/07/30 00:21:22;;;;;;;7.30;5.97;;;18.30;1.00;;;;;;5115784;28;20612;-46
2023/07/30 00:23:48;;;;;;;7.03;6.43;;;18.20;1.00;;;;;;5114543;28;20448;-44
2023/07/30 00:26:13;;;;;;;8.60;7.07;;;18.20;1.00;;;;;;5115570;28;20207;-45
2023/07/30 00:28:39;;;;;;;6.77;6.13;;;18.20;1.00;;;;;;5114745;28;20167;-47
2023/07/30 00:31:05;;;;;;;6.53;5.93;;;18.20;1.00;;;;;;5096935;28;20275;-45
2023/07/30 00:33:30;;;;;;;6.70;6.00;;;18.20;1.00;;;;;;5115264;28;20184;-48
2023/07/30 00:35:56;;;;;;;6.07;5.57;;;18.20;1.00;;;;;;5113545;28;20179;-47
2023/07/30 00:38:21;;;;;;;6.80;5.63;;;18.10;1.00;;;;;;5112543;28;20188;-50
2023/07/30 00:40:47;;;;;;;7.20;5.40;;;18.10;1.00;;;;;;5113465;28;20206;-48
2023/07/30 00:43:13;;;;;;;5.77;5.27;;;18.00;1.00;;;;;;5113595;28;20233;-48
2023/07/30 00:45:41;;;;;;;6.23;5.63;;;18.00;1.00;;;;;;5112896;28;20184;-44
2023/07/30 00:48:06;;;;;;;5.80;5.10;;;17.90;1.00;;;;;;5113006;28;20465;-47
2023/07/30 00:50:33;;;;;;;5.53;5.03;;;17.90;1.00;;;;;;5111993;28;20486;-46
2023/07/30 00:52:59;;;;;;;7.83;6.07;;;17.90;1.00;;;;;;5114216;28;20211;-46
2023/07/30 00:55:24;;;;;;;8.73;5.20;;;17.90;1.00;;;;;;5097204;28;20718;-45
2023/07/30 00:57:50;;;;;;;7.23;5.07;;;17.90;1.00;;;;;;5114301;28;20707;-48
2023/07/30 01:00:16;;;;;;;5.37;4.87;;;17.80;1.00;;;;;;5115384;28;20705;-46
2023/07/30 01:02:42;;;;;;;4.90;4.50;;;17.80;1.00;;;;;;5114998;28;20475;-48
2023/07/30 01:05:07;;;;;;;5.33;4.83;;;17.80;1.00;;;;;;5114514;28;20596;-45
2023/07/30 01:07:33;;;;;;;5.67;5.07;;;17.80;1.00;;;;;;5114319;28;20280;-45
2023/07/30 01:10:00;;;;;;;5.77;5.27;;;17.80;1.00;;;;;;5114824;28;20471;-45
2023/07/30 01:12:26;;;;;;;6.27;5.00;;;17.70;1.00;;;;;;5097114;28;20183;-47
2023/07/30 01:14:51;;;;;;;5.33;4.83;;;17.80;1.00;;;;;;5096712;28;20545;-46
2023/07/30 01:17:17;;;;;;;5.87;5.37;;;17.80;1.00;;;;;;5097168;28;20499;-46
2023/07/30 01:19:43;;;;;;;6.07;5.47;;;17.80;1.00;;;;;;5113908;28;20223;-46
2023/07/30 01:22:09;;;;;;;6.80;5.77;;;17.70;1.00;;;;;;5113058;28;20514;-44
2023/07/30 01:24:35;;;;;;;6.07;5.20;;;17.70;1.00;;;;;;5113743;28;20755;-45
2023/07/30 01:27:07;;;;;;;5.73;5.23;;;17.70;1.00;;;;;;5113129;28;20175;-45
2023/07/30 01:29:40;;;;;;;4.93;4.53;;;17.70;1.00;;;;;;5113701;28;20274;-44
2023/07/30 01:32:08;;;;;;;5.30;4.80;;;17.70;1.00;;;;;;5096089;28;20521;-46
2023/07/30 01:34:38;;;;;;;5.20;4.40;;;17.70;1.00;;;;;;5096695;28;20551;-45
2023/07/30 01:37:06;;;;;;;5.27;4.77;;;17.70;1.00;;;;;;5097906;28;20492;-45
2023/07/30 01:39:32;;;;;;;5.63;5.13;;;17.70;1.00;;;;;;5098326;28;20521;-46
2023/07/30 01:41:58;;;;;;;6.50;5.67;;;17.60;1.00;;;;;;5115079;28;20482;-47
2023/07/30 01:44:23;;;;;;;4.93;4.47;;;17.50;1.00;;;;;;5114548;28;20853;-47
2023/07/30 01:46:49;;;;;;;5.27;4.77;;;17.50;1.00;;;;;;5101589;28;20542;-47
2023/07/30 01:49:15;;;;;;;5.90;3.60;;;17.50;1.00;;;;;;5113722;28;20449;-45
2023/07/30 01:51:41;;;;;;;5.33;4.80;;;17.50;1.00;;;;;;5111787;28;20689;-45
2023/07/30 01:54:06;;;;;;;4.80;4.20;;;17.60;1.00;;;;;;5112143;28;20701;-46
2023/07/30 01:56:33;;;;;;;5.20;3.93;;;17.60;1.00;;;;;;5111503;28;20506;-46
2023/07/30 01:58:59;;;;;;;4.80;4.30;;;17.50;1.00;;;;;;5111740;28;20195;-45
2023/07/30 02:01:25;;;;;;;5.80;4.07;;;17.50;1.00;;;;;;5112012;28;20656;-46
2023/07/30 02:03:50;;;;;;;4.57;4.17;;;17.40;1.00;;;;;;5112587;28;20211;-45
2023/07/30 02:06:16;;;;;;;6.03;3.70;;;17.40;1.00;;;;;;5114053;28;20421;-46
2023/07/30 02:08:42;;;;;;;3.50;3.20;;;17.30;1.00;;;;;;5113151;28;20351;-49
2023/07/30 02:11:07;;;;;;;4.17;3.77;;;17.30;1.00;;;;;;5114586;28;20404;-47
2023/07/30 02:13:33;;;;;;;3.87;3.30;;;17.30;1.00;;;;;;5113722;28;20199;-46
2023/07/30 02:15:58;;;;;;;4.43;3.70;;;17.30;1.00;;;;;;5113543;28;20221;-48
2023/07/30 02:18:24;;;;;;;4.50;4.10;;;17.30;1.00;;;;;;5113640;28;20192;-47
2023/07/30 02:20:50;;;;;;;3.47;3.13;;;17.30;1.00;;;;;;5113280;28;20215;-47
2023/07/30 02:23:16;;;;;;;4.10;3.67;;;17.20;1.00;;;;;;5113336;28;20205;-46
2023/07/30 02:25:42;;;;;;;3.13;2.83;;;17.20;1.00;;;;;;5112866;28;20195;-47
2023/07/30 02:28:08;;;;;;;3.20;2.87;;;17.20;1.00;;;;;;5112897;28;20413;-46
2023/07/30 02:30:34;;;;;;;3.30;2.90;;;17.20;1.00;;;;;;5112718;28;20432;-45
2023/07/30 02:32:59;;;;;;;3.77;2.90;;;17.20;1.00;;;;;;5112272;28;20190;-47
2023/07/30 02:35:26;;;;;;;3.87;3.30;;;17.20;1.00;;;;;;5115241;28;20462;-46
2023/07/30 02:37:52;;;;;;;4.77;3.27;;;17.20;1.00;;;;;;5110397;28;20484;-47
2023/07/30 02:40:18;;;;;;;4.67;3.13;;;17.20;1.00;;;;;;5115237;28;20812;-47
2023/07/30 02:42:44;;;;;;;3.10;2.90;;;17.20;1.00;;;;;;5116401;28;20444;-48
2023/07/30 02:45:10;;;;;;;3.77;3.37;;;17.20;1.00;;;;;;5116236;28;20194;-45
2023/07/30 02:47:35;;;;;;;3.17;2.80;;;17.20;1.00;;;;;;5118874;28;20190;-47
2023/07/30 02:50:02;;;;;;;3.80;3.20;;;17.20;1.00;;;;;;5119254;28;20441;-46
2023/07/30 02:52:35;;;;;;;4.10;3.70;;;17.20;1.00;;;;;;5117869;28;20271;-46
2023/07/30 02:55:01;;;;;;;4.50;3.17;;;17.20;1.00;;;;;;5119570;28;20413;-45
2023/07/30 02:57:26;;;;;;;4.10;3.70;;;17.20;1.00;;;;;;5118213;28;20425;-45
2023/07/30 02:59:52;;;;;;;4.07;3.20;;;17.20;1.00;;;;;;5118949;28;20207;-45
2023/07/30 03:02:18;;;;;;;3.93;3.53;;;17.20;1.00;;;;;;5119119;28;20254;-46
2023/07/30 03:04:43;;;;;;;3.93;3.63;;;17.20;1.00;;;;;;5119216;28;20479;-46
2023/07/30 03:07:09;;;;;;;3.40;3.10;;;17.20;1.00;;;;;;5116911;28;20172;-44
2023/07/30 03:09:35;;;;;;;5.53;3.57;;;17.20;1.00;;;;;;5118182;28;20191;-46
2023/07/30 03:12:01;;;;;;;3.60;3.30;;;17.20;1.00;;;;;;5118311;28;20676;-45
2023/07/30 03:14:26;;;;;;;3.97;3.67;;;17.10;1.00;;;;;;5119657;28;20184;-47
2023/07/30 03:16:52;;;;;;;7.53;3.83;;;17.10;1.00;;;;;;5118480;28;20272;-46
2023/07/30 03:19:18;;;;;;;5.20;3.93;;;17.10;1.00;;;;;;5084604;28;20570;-47
2023/07/30 03:21:43;;;;;;;4.23;3.83;;;17.10;1.00;;;;;;5099033;28;20424;-46
2023/07/30 03:24:09;;;;;;;4.93;4.47;;;17.10;1.00;;;;;;5097686;28;20246;-45
2023/07/30 03:26:34;;;;;;;4.07;3.77;;;17.10;1.00;;;;;;5097589;28;20185;-47
2023/07/30 03:29:00;;;;;;;5.37;4.00;;;17.10;1.00;;;;;;5097123;28;20173;-48
2023/07/30 03:31:28;;;;;;;5.20;3.90;;;17.10;1.00;;;;;;5110659;28;20247;-46
2023/07/30 03:33:53;;;;;;;4.17;3.77;;;17.10;1.00;;;;;;5117998;28;20454;-46
2023/07/30 03:36:19;;;;;;;5.13;4.10;;;17.10;1.00;;;;;;5117632;28;20480;-45
2023/07/30 03:38:45;;;;;;;5.23;3.50;;;17.10;1.00;;;;;;5118129;28;20403;-48
2023/07/30 03:41:11;;;;;;;3.83;3.40;;;17.10;1.00;;;;;;5118205;28;20211;-46
2023/07/30 03:43:36;;;;;;;4.60;3.70;;;17.20;1.00;;;;;;5118758;28;20430;-45
2023/07/30 03:46:02;;;;;;;4.47;3.80;;;17.20;1.00;;;;;;5118415;28;20202;-46
2023/07/30 03:48:28;;;;;;;3.63;3.33;;;17.20;1.00;;;;;;5118148;28;20457;-47
2023/07/30 03:50:54;;;;;;;4.60;3.80;;;17.20;1.00;;;;;;5117858;28;20213;-46
2023/07/30 03:53:20;;;;;;;4.50;4.10;;;17.20;1.00;;;;;;5100178;28;20219;-47
2023/07/30 03:55:46;;;;;;;4.73;3.47;;;17.20;1.00;;;;;;5118132;28;20855;-47
2023/07/30 03:58:11;;;;;;;4.13;3.60;;;17.20;1.00;;;;;;5118385;28;20597;-44
2023/07/30 04:00:37;;;;;;;4.20;3.80;;;17.20;1.00;;;;;;5118460;28;20334;-46
2023/07/30 04:03:03;;;;;;;4.27;3.87;;;17.20;1.00;;;;;;5100076;28;20188;-47
2023/07/30 04:05:29;;;;;;;4.57;4.17;;;17.20;1.00;;;;;;5117866;28;20451;-47
2023/07/30 04:07:55;;;;;;;4.47;4.07;;;17.20;1.00;;;;;;5117490;28;20191;-45
2023/07/30 04:10:20;;;;;;;8.53;5.00;;;17.20;1.00;;;;;;5116627;28;20441;-47
2023/07/30 04:12:46;;;;;;;4.10;3.70;;;17.20;1.00;;;;;;5099646;28;20404;-45
2023/07/30 04:15:12;;;;;;;5.70;4.17;;;17.30;1.00;;;;;;5096621;28;20567;-44
2023/07/30 04:17:38;;;;;;;3.80;3.50;;;17.20;1.00;;;;;;5079128;28;20399;-44
2023/07/30 04:20:04;;;;;;;5.23;4.60;;;17.20;1.00;;;;;;5096971;28;20235;-46
2023/07/30 04:22:30;;;;;;;4.00;3.70;;;17.20;1.00;;;;;;5097256;28;20438;-45
2023/07/30 04:24:58;;;;;;;5.17;4.30;;;17.20;1.00;;;;;;5095567;28;20488;-46
2023/07/30 04:27:24;;;;;;;4.60;4.20;;;17.20;1.00;;;;;;5094923;28;20829;-44
2023/07/30 04:29:49;;;;;;;5.20;4.40;;;17.20;1.00;;;;;;5095742;28;20489;-46
2023/07/30 04:32:15;;;;;;;4.63;4.23;;;17.20;1.00;;;;;;5115060;28;20199;-47
2023/07/30 04:34:40;;;;;;;4.40;4.00;;;17.20;1.00;;;;;;5117182;28;20242;-45
2023/07/30 04:37:06;;;;;;;4.10;3.70;;;17.30;1.00;;;;;;5116159;28;20335;-46
2023/07/30 04:39:32;;;;;;;4.80;4.30;;;17.30;1.00;;;;;;5098641;28;20677;-46
2023/07/30 04:41:58;;;;;;;5.10;4.60;;;17.30;1.00;;;;;;5096190;28;20283;-46
2023/07/30 04:44:24;;;;;;;4.13;3.70;;;17.30;1.00;;;;;;5095892;28;20509;-47
2023/07/30 04:46:49;;;;;;;4.30;3.90;;;17.30;1.00;;;;;;5095845;28;20197;-46
2023/07/30 04:49:15;;;;;;;4.90;4.50;;;17.40;1.00;;;;;;5095019;28;20184;-48
2023/07/30 04:51:40;;;;;;;4.20;3.90;;;17.40;1.00;;;;;;5096817;28;20184;-47
2023/07/30 04:54:06;;;;;;;5.10;4.60;;;17.40;1.00;;;;;;5096302;28;20207;-47
2023/07/30 04:56:32;;;;;;;4.87;4.47;;;17.40;1.00;;;;;;5097040;28;20181;-45
2023/07/30 04:58:57;;;;;;;5.37;4.10;;;17.40;1.00;;;;;;5096512;28;20181;-46
2023/07/30 05:01:24;;;;;;;4.47;4.07;;;17.50;1.00;;;;;;5107315;28;20215;-45
2023/07/30 05:03:50;;;;;;;4.30;3.90;;;17.50;1.00;;;;;;5116762;28;20190;-46
2023/07/30 05:06:16;;;;;;;5.00;4.17;;;17.50;1.00;;;;;;5116787;28;20437;-47
2023/07/30 05:08:41;;;;;;;4.17;3.77;;;17.50;1.00;;;;;;5116923;28;20506;-45
2023/07/30 05:11:07;;;;;;;3.70;3.40;;;17.50;1.00;;;;;;5116913;28;20438;-46
2023/07/30 05:13:33;;;;;;;4.10;3.80;;;17.50;1.00;;;;;;5117979;28;20265;-46
2023/07/30 05:15:58;;;;;;;4.90;3.90;;;17.50;1.00;;;;;;5117168;28;20195;-47
2023/07/30 05:18:24;;;;;;;3.97;3.50;;;17.50;1.00;;;;;;5117037;28;20196;-45
2023/07/30 05:20:50;;;;;;;7.53;2.83;;;17.50;1.00;;;;;;5117505;28;20242;-44
2023/07/30 05:23:15;;;;;;;3.20;2.90;;;17.50;1.00;;;;;;5116074;28;20433;-47
2023/07/30 05:25:41;;;;;;;3.70;3.40;;;17.50;1.00;;;;;;5115832;28;20237;-44
2023/07/30 05:28:06;;;;;;;3.80;3.40;;;17.60;1.00;;;;;;5115580;28;20202;-44
2023/07/30 05:30:32;;;;;;;3.23;2.97;;;17.50;1.00;;;;;;5116052;28;20485;-45
2023/07/30 05:32:58;;;;;;;3.97;2.93;;;17.60;1.00;;;;;;5115638;28;20544;-44
2023/07/30 05:35:23;;;;;;;4.80;3.00;;;17.60;1.00;;;;;;5116294;28;20192;-43
2023/07/30 05:37:49;;;;;;;3.70;3.40;;;17.60;1.00;;;;;;5114854;28;20477;-45
2023/07/30 05:40:15;;;;;;;3.57;3.27;;;17.60;1.00;;;;;;5079180;28;20228;-49
2023/07/30 05:42:40;;;;;;;3.70;2.93;;;17.60;1.00;;;;;;5077502;28;20249;-47
2023/07/30 05:45:07;;;;;;;3.80;2.73;;;17.60;1.00;;;;;;5096397;28;20185;-46
2023/07/30 05:47:33;;;;;;;3.23;2.93;;;17.60;1.00;;;;;;5104366;28;20191;-47
2023/07/30 05:49:59;;;;;;;3.13;2.83;;;17.60;1.00;;;;;;5110991;28;20529;-49
2023/07/30 05:52:24;;;;;;;3.30;2.97;;;17.50;1.00;;;;;;5095530;28;20192;-49
2023/07/30 05:54:50;;;;;;;3.33;2.93;;;17.60;1.00;;;;;;5094873;28;20628;-47
2023/07/30 05:57:15;;;;;;;3.10;2.83;;;17.60;1.00;;;;;;5098466;28;20196;-50
2023/07/30 05:59:41;;;;;;;3.23;2.93;;;17.70;1.00;;;;;;5115502;28;20336;-44
2023/07/30 06:02:07;;;;;;;3.50;3.03;;;17.80;1.00;;;;;;5105681;28;20188;-45
2023/07/30 06:04:33;;;;;;;3.50;3.20;;;17.80;1.00;;;;;;5093321;28;20191;-45
2023/07/30 06:07:02;;;;;;;4.03;3.00;;;17.80;1.00;;;;;;5095661;28;20296;-44
2023/07/30 06:09:28;;;;;;;4.33;2.90;;;17.90;1.00;;;;;;5113738;28;20191;-45
2023/07/30 06:11:57;;;;;;;2.43;2.10;;;18.00;1.00;;;;;;5115149;28;20514;-45
2023/07/30 06:14:23;;;;;;;3.90;2.80;;;18.00;1.00;;;;;;5115146;28;20245;-45
2023/07/30 06:16:49;;;;;;;3.70;2.80;;;18.00;1.00;;;;;;5116307;28;20429;-45
2023/07/30 06:19:14;;;;;;;2.50;2.30;;;18.10;1.00;;;;;;5112825;28;20204;-45
2023/07/30 06:21:40;;;;;;;2.50;2.20;;;18.10;1.00;;;;;;5114979;28;20432;-45
2023/07/30 06:24:05;;;;;;;2.97;2.50;;;18.20;1.00;;;;;;5115928;28;20180;-44
2023/07/30 06:26:31;;;;;;;2.73;2.30;;;18.40;1.00;;;;;;5115645;28;20279;-44
2023/07/30 06:28:57;;;;;;;2.37;2.17;;;18.50;1.00;;;;;;5114988;28;20207;-46
2023/07/30 06:31:22;;;;;;;2.73;2.40;;;18.60;1.00;;;;;;5115643;28;20203;-44
2023/07/30 06:33:48;;;;;;;2.87;2.10;;;18.60;1.00;;;;;;5108133;28;20185;-43
2023/07/30 06:36:14;;;;;;;3.70;2.27;;;18.60;1.00;;;;;;5104632;28;20245;-43
2023/07/30 06:38:39;;;;;;;3.30;2.27;;;18.70;1.00;;;;;;5115039;28;20200;-45
2023/07/30 06:41:05;;;;;;;2.17;1.97;;;18.90;1.00;;;;;;5112777;28;20234;-45
2023/07/30 06:43:30;;;;;;;2.20;1.93;;;19.10;99.90;;;;;;5113689;28;20187;-45
2023/07/30 06:45:56;;;;;;;2.83;2.20;;;19.30;99.90;;;;;;5113536;28;20202;-45
2023/07/30 06:48:22;;;;;;;2.20;2.00;;;19.60;99.90;;;;;;5114770;28;20188;-46
2023/07/30 06:50:48;;;;;;;2.50;2.00;;;19.70;99.90;;;;;;5113260;28;20473;-45
2023/07/30 06:53:13;;;;;;;2.20;2.00;;;19.90;99.90;;;;;;5113919;28;20204;-44
2023/07/30 06:55:39;;;;;;;1.90;1.70;;;19.90;99.90;;;;;;5113803;28;20190;-45
2023/07/30 06:58:05;;;;;;;5.20;2.00;;;19.80;95.40;;;;;;5114720;28;20806;-43
2023/07/30 07:00:30;;;;;;;2.80;2.30;;;19.70;99.90;;;;;;5112676;28;20280;-45
2023/07/30 07:02:56;;;;;;;2.30;1.50;;;19.50;99.90;;;;;;5079545;28;20184;-46
2023/07/30 07:05:22;;;;;;;1.73;1.50;;;19.40;99.90;;;;;;5112416;28;20191;-44
2023/07/30 07:07:47;;;;;;;1.70;1.53;;;19.40;99.90;;;;;;5112961;28;20194;-46
2023/07/30 07:10:13;;;;;;;2.13;1.80;;;19.20;99.90;;;;;;5112787;28;20319;-45
2023/07/30 07:12:39;;;;;;;3.07;2.07;;;19.10;99.90;;;;;;5114066;28;20191;-45
2023/07/30 07:15:05;;;;;;;2.10;1.90;;;18.90;99.90;;;;;;5113831;28;20190;-46
2023/07/30 07:17:31;;;;;;;2.77;2.20;;;18.80;1.00;;;;;;5112973;28;20437;-45
2023/07/30 07:19:57;;;;;;;2.63;2.30;;;18.70;1.00;;;;;;5095955;28;20816;-44
2023/07/30 07:22:23;;;;;;;2.87;2.10;;;18.70;1.00;;;;;;5114236;28;20575;-47
2023/07/30 07:24:52;;;;;;;3.60;2.30;;;18.60;1.00;;;;;;5115019;28;20413;-46
2023/07/30 07:27:17;;;;;;;3.90;2.67;;;18.50;1.00;;;;;;5117841;28;20444;-45
2023/07/30 07:29:43;;;;;;;2.90;2.23;;;18.50;1.00;;;;;;5098874;28;20718;-47
2023/07/30 07:32:09;;;;;;;2.70;2.50;;;18.50;1.00;;;;;;5112248;28;20287;-45
2023/07/30 07:34:35;;;;;;;2.47;2.27;;;18.50;1.00;;;;;;5079144;28;20267;-46
2023/07/30 07:37:01;;;;;;;2.83;2.30;;;18.50;1.00;;;;;;5099970;28;20228;-46
2023/07/30 07:39:27;;;;;;;3.50;2.27;;;18.40;1.00;;;;;;5118675;28;20565;-46
2023/07/30 07:41:52;;;;;;;4.00;2.47;;;18.40;1.00;;;;;;5118542;28;20422;-47
2023/07/30 07:44:18;;;;;;;2.50;1.93;;;18.50;1.00;;;;;;5079113;28;20196;-45
2023/07/30 07:46:44;;;;;;;2.00;1.70;;;18.50;1.00;;;;;;5098522;28;20192;-48
2023/07/30 07:49:10;;;;;;;2.80;1.90;;;18.60;1.00;;;;;;5096953;28;20422;-46
2023/07/30 07:51:35;;;;;;;2.20;2.00;;;18.50;1.00;;;;;;5094681;28;20192;-45
2023/07/30 07:54:01;;;;;;;2.03;1.80;;;18.50;1.00;;;;;;5097000;28;20747;-46
2023/07/30 07:56:27;;;;;;;3.37;2.10;;;18.60;1.00;;;;;;5097058;28;20193;-46
2023/07/30 07:58:52;;;;;;;3.50;1.90;;;18.80;1.00;;;;;;5061079;28;20291;-45
2023/07/30 08:01:18;;;;;;;1.80;1.60;;;18.80;1.00;;;;;;5078694;28;20223;-47
2023/07/30 08:03:44;;;;;;;2.80;2.10;;;18.90;1.00;;;;;;5096992;28;20180;-44
2023/07/30 08:06:10;;;;;;;2.30;2.00;;;18.90;1.00;;;;;;5097276;28;20180;-45
2023/07/30 08:08:38;;;;;;;2.33;2.13;;;19.00;99.90;;;;;;5079023;28;20195;-44
2023/07/30 08:11:08;;;;;;;2.57;2.00;;;19.00;99.90;;;;;;5096189;28;20188;-44
2023/07/30 08:13:35;;;;;;;1.97;1.77;;;19.10;99.90;;;;;;5077985;28;20469;-49
2023/07/30 08:16:01;;;;;;;2.43;1.83;;;19.30;99.90;;;;;;5096089;28;20433;-46
2023/07/30 08:18:27;;;;;;;2.53;2.33;;;19.70;99.90;;;;;;5096687;28;20421;-46
2023/07/30 08:20:53;;;;;;;2.63;2.23;;;20.10;99.90;;;;;;5077889;28;20473;-46
2023/07/30 08:23:19;;;;;;;2.30;1.90;;;20.40;33.40;;;;;;5062585;28;20434;-43
2023/07/30 08:25:45;;;;;;;3.00;2.10;;;21.00;93.20;;;;;;5097249;28;20188;-46
2023/07/30 08:28:10;;;;;;;1.80;1.57;;;21.60;99.90;;;;;;5096707;28;20176;-45
2023/07/30 08:30:36;;;;;;;1.77;1.67;;;21.60;99.90;;;;;;5097419;28;20184;-46
2023/07/30 08:33:02;;;;;;;2.23;2.00;;;21.30;1.00;;;;;;5096116;28;20199;-46
2023/07/30 08:35:28;;;;;;;3.67;1.93;;;20.90;99.90;;;;;;5104256;28;20206;-48
2023/07/30 08:37:54;;;;;;;3.10;2.30;;;20.90;1.00;;;;;;5116072;28;20258;-47
2023/07/30 08:40:23;;;;;;;2.10;1.80;;;20.80;1.00;;;;;;5115899;28;20970;-50
2023/07/30 08:42:52;;;;;;;2.93;1.83;;;20.80;99.90;;;;;;5115838;28;20851;-46
2023/07/30 08:45:17;;;;;;;2.33;2.10;;;20.90;99.90;;;;;;5116100;28;20421;-49
2023/07/30 08:47:44;;;;;;;2.60;2.40;;;20.90;1.00;;;;;;5115651;28;20437;-47
2023/07/30 08:50:10;;;;;;;2.60;2.00;;;20.70;1.00;;;;;;5094367;28;20200;-46
2023/07/30 08:52:37;;;;;;;4.73;1.93;;;21.00;1.00;;;;;;5097987;28;20433;-44
2023/07/30 08:55:04;;;;;;;2.93;2.03;;;21.30;99.90;;;;;;5104505;28;20434;-45
2023/07/30 08:57:30;;;;;;;2.60;2.37;;;21.60;1.00;;;;;;5076237;28;20434;-45
2023/07/30 09:00:08;;;;;;;2.20;1.97;;;21.60;21.80;;;;;;5076487;28;20507;-47
2023/07/30 09:02:48;;;;;;;2.30;2.10;;;21.60;1.00;;;;;;5060679;28;20442;-49
2023/07/30 09:05:14;;;;;;;2.60;2.40;;;21.50;1.00;;;;;;5075735;28;20446;-47
2023/07/30 09:07:40;;;;;;;3.33;1.97;;;21.30;99.90;;;;;;5076923;28;20507;-46
2023/07/30 09:10:06;;;;;;;3.50;2.10;;;21.30;1.00;;;;;;5094992;28;20216;-46
2023/07/30 09:12:33;;;;;;;2.20;2.00;;;21.30;26.90;;;;;;5095111;28;20188;-46
2023/07/30 09:14:58;;;;;;;2.47;2.27;;;21.20;57.60;;;;;;5097470;28;20456;-49
2023/07/30 09:17:25;;;;;;;3.30;2.70;;;21.20;99.90;;;;;;5115475;28;20873;-45
2023/07/30 09:19:52;;;;;;;2.27;2.07;;;21.20;99.90;;;;;;5109151;28;20208;-44
2023/07/30 09:22:29;;;;;;;2.33;2.13;;;21.10;99.90;;;;;;5093920;28;20438;-44
2023/07/30 09:24:57;;;;;;;2.27;2.07;;;20.90;99.90;;;;;;5094163;28;20438;-45
2023/07/30 09:27:25;;;;;;;1.90;1.77;;;20.80;1.00;;;;;;5096132;28;20435;-45
2023/07/30 09:29:58;;;;;;;3.70;2.10;;;20.80;99.90;;;;;;5104429;28;20449;-49
2023/07/30 09:32:33;;;;;;;3.10;2.40;;;20.60;99.90;;;;;;5101648;28;20673;-45
2023/07/30 09:35:09;;;;;;;3.60;2.53;;;20.50;1.00;;;;;;5093578;28;21038;-46
2023/07/30 09:37:42;;;;;;;2.50;2.23;;;20.30;99.90;;;;;;5094561;28;20481;-45
2023/07/30 09:40:18;;;;;;;3.90;2.10;;;20.10;1.00;;;;;;5094978;28;20864;-46
2023/07/30 09:42:46;;;;;;;2.70;1.80;;;20.10;99.90;;;;;;5114844;28;20465;-45
2023/07/30 09:45:22;;;;;;;2.50;2.30;;;20.10;1.00;;;;;;5114931;28;20421;-45
2023/07/30 09:47:52;;;;;;;2.80;2.43;;;20.00;99.90;;;;;;5082700;28;20502;-46
2023/07/30 09:50:17;;;;;;;2.30;2.10;;;20.00;1.00;;;;;;5076214;28;20446;-46
2023/07/30 09:52:44;;;;;;;3.17;2.40;;;20.20;1.00;;;;;;5093879;28;20487;-46
2023/07/30 09:55:10;;;;;;;3.47;2.30;;;20.10;1.00;;;;;;5093792;28;20418;-55
2023/07/30 09:57:36;;;;;;;3.97;2.83;;;20.10;99.90;;;;;;5093808;28;21034;-46
2023/07/30 10:00:05;;;;;;;3.00;2.53;;;20.10;99.90;;;;;;5093865;28;20473;-47
2023/07/30 10:02:32;;;;;;;2.20;2.00;;;20.50;99.90;;;;;;5108369;28;20434;-45
2023/07/30 10:04:59;;;;;;;2.57;2.37;;;20.70;99.90;;;;;;5095278;28;20803;-45
2023/07/30 10:07:26;;;;;;;2.47;1.90;;;21.40;99.90;;;;;;5091816;28;20418;-45
2023/07/30 10:09:55;;;;;;;2.70;2.50;;;21.70;1.00;;;;;;5093932;28;20425;-48
2023/07/30 10:12:32;;;;;;;3.47;2.73;;;22.10;99.90;;;;;;5077652;28;20535;-45
2023/07/30 10:15:01;;;;;;;2.43;2.10;;;22.70;1.00;;;;;;5075582;28;20440;-47
2023/07/30 10:17:28;;;;;;;3.10;2.10;;;23.50;99.90;;;;;;5076107;28;20447;-51
2023/07/30 10:19:54;;;;;;;2.60;2.10;;;24.60;99.90;;;;;;5094362;28;20466;-46
2023/07/30 10:22:25;;;;;;;2.80;2.30;;;25.20;99.90;;;;;;5077976;28;20471;-47
2023/07/30 10:25:02;;;;;;;2.43;2.23;;;25.40;33.50;;;;;;5113789;28;20418;-46
2023/07/30 10:27:36;;;;;;;3.00;2.53;;;25.20;23.10;;;;;;5095216;28;20511;-44
2023/07/30 10:30:13;;;;;;;3.90;2.70;;;25.50;1.00;;;;;;5113564;28;20445;-45
2023/07/30 10:32:43;;;;;;;2.53;2.33;;;25.00;1.00;;;;;;5103032;28;20497;-45
2023/07/30 10:35:09;;;;;;;2.83;2.57;;;25.20;1.00;;;;;;5111214;28;20421;-44
2023/07/30 10:37:34;;;;;;;3.40;2.50;;;25.40;1.00;;;;;;5111981;28;20484;-44
2023/07/30 10:40:00;;;;;;;4.10;2.70;;;25.40;1.00;;;;;;5099436;28;20473;-44
2023/07/30 10:42:35;;;;;;;2.43;2.20;;;25.30;1.00;;;;;;5075097;28;20611;-46
2023/07/30 10:45:01;;;;;;;3.37;2.70;;;25.60;1.00;;;;;;5093070;28;20183;-45
2023/07/30 10:47:29;;;;;;;4.33;2.70;;;26.40;1.00;;;;;;5091513;28;20433;-46
2023/07/30 10:50:01;;;;;;;2.50;2.30;;;27.20;1.00;;;;;;5092026;28;20245;-47
2023/07/30 10:52:26;;;;;;;4.33;3.03;;;27.60;1.00;;;;;;5057432;28;20531;-44
2023/07/30 10:55:00;;;;;;;2.57;2.37;;;27.10;1.00;;;;;;5090330;28;20476;-45
2023/07/30 10:57:31;;;;;;;3.07;2.73;;;27.00;1.00;;;;;;5091606;28;20196;-45
2023/07/30 10:59:58;;;;;;;3.70;3.03;;;26.80;1.00;;;;;;5091010;28;20646;-45
2023/07/30 11:02:24;;;;;;;2.80;2.20;;;26.70;1.00;;;;;;5093139;28;20920;-47
2023/07/30 11:04:51;;;;;;;3.03;2.57;;;26.80;1.00;;;;;;5075914;28;20429;-45
2023/07/30 11:07:18;;;;;;;2.70;2.13;;;26.80;1.00;;;;;;5077564;28;20225;-45
2023/07/30 11:09:43;;;;;;;2.30;2.10;;;27.00;1.00;;;;;;5095106;28;20831;-46
2023/07/30 11:12:10;;;;;;;2.80;2.53;;;26.70;1.00;;;;;;5092998;28;20433;-45
2023/07/30 11:14:36;;;;;;;3.10;2.70;;;27.50;1.00;;;;;;5095532;28;20192;-45
2023/07/30 11:17:02;;;;;;;2.93;2.60;;;28.10;1.00;;;;;;5096314;28;20430;-45
2023/07/30 11:19:28;;;;;;;2.83;2.57;;;28.00;1.00;;;;;;5095762;28;20631;-46
2023/07/30 11:21:56;;;;;;;4.20;3.77;;;27.10;1.00;;;;;;5095965;28;20773;-44
2023/07/30 11:24:43;;;;;;;3.57;2.70;;;27.90;1.00;;;;;;5095348;28;20419;-45
2023/07/30 11:27:09;;;;;;;4.37;3.00;;;29.10;1.00;;;;;;5095938;28;20496;-46
2023/07/30 11:29:35;;;;;;;2.80;2.60;;;29.00;1.00;;;;;;5096151;28;20854;-47
2023/07/30 11:32:02;;;;;;;4.90;2.87;;;29.20;1.00;;;;;;5095694;28;20276;-48
2023/07/30 11:34:28;;;;;;;3.07;2.77;;;28.80;1.00;;;;;;5095860;28;20195;-44
2023/07/30 11:36:54;;;;;;;4.80;3.00;;;28.20;1.00;;;;;;5079319;28;20823;-46
2023/07/30 11:39:21;;;;;;;2.97;2.53;;;28.50;1.00;;;;;;5078025;28;20181;-44
2023/07/30 11:41:50;;;;;;;3.27;2.97;;;28.80;1.00;;;;;;5077267;28;20426;-47
2023/07/30 11:44:33;;;;;;;2.67;2.47;;;28.80;1.00;;;;;;5075281;28;20418;-45
2023/07/30 11:46:59;;;;;;;2.73;2.50;;;29.60;1.00;;;;;;5075808;28;20706;-44
2023/07/30 11:49:25;;;;;;;4.60;2.77;;;28.70;1.00;;;;;;5092691;28;20426;-47
2023/07/30 11:52:03;;;;;;;5.43;2.70;;;28.70;1.00;;;;;;5092619;28;20240;-45
2023/07/30 11:54:31;;;;;;;2.90;2.50;;;29.20;1.00;;;;;;5075370;28;20234;-46
2023/07/30 11:57:00;;;;;;;2.83;2.63;;;30.80;1.00;;;;;;5094534;28;20669;-49
2023/07/30 11:59:26;;;;;;;4.00;3.10;;;31.50;1.00;;;;;;5075711;28;20492;-45
2023/07/30 12:01:51;;;;;;;3.53;2.93;;;30.60;1.00;;;;;;5093852;28;20393;-46
2023/07/30 12:04:17;;;;;;;3.20;2.90;;;30.20;1.00;;;;;;5094230;28;20419;-46
2023/07/30 12:06:48;;;;;;;3.20;2.73;;;29.20;1.00;;;;;;5077075;28;20275;-45
2023/07/30 12:09:16;;;;;;;3.20;2.83;;;28.50;1.00;;;;;;5095743;28;20438;-44
2023/07/30 12:11:56;;;;;;;3.50;2.77;;;27.70;1.00;;;;;;5095929;28;20837;-46
2023/07/30 12:14:30;;;;;;;3.50;3.17;;;27.20;1.00;;;;;;5095238;28;20421;-45
2023/07/30 12:16:59;;;;;;;3.90;3.00;;;26.80;1.00;;;;;;5095274;28;20395;-46
2023/07/30 12:19:24;;;;;;;4.73;2.80;;;26.40;1.00;;;;;;5095784;28;20803;-46
2023/07/30 12:21:51;;;;;;;2.40;2.20;;;26.10;1.00;;;;;;5095121;28;20433;-46
2023/07/30 12:24:20;;;;;;;4.43;3.30;;;25.50;1.00;;;;;;5094559;28;20291;-45
2023/07/30 12:26:46;;;;;;;4.80;3.10;;;24.50;1.00;;;;;;5094205;28;20419;-45
2023/07/30 12:29:11;;;;;;;3.20;2.70;;;24.30;1.00;;;;;;5093078;28;20871;-45
2023/07/30 12:31:37;;;;;;;4.70;3.13;;;23.90;1.00;;;;;;5093114;28;20184;-45
2023/07/30 12:34:03;;;;;;;4.50;3.03;;;24.60;1.00;;;;;;5093786;28;20188;-44
2023/07/30 12:36:28;;;;;;;3.87;3.00;;;25.60;1.00;;;;;;5092713;28;20326;-45
2023/07/30 12:38:54;;;;;;;3.30;2.80;;;27.20;1.00;;;;;;5095556;28;20532;-44
2023/07/30 12:41:25;;;;;;;2.97;2.47;;;27.70;1.00;;;;;;5095339;28;20251;-44
2023/07/30 12:43:52;;;;;;;3.70;2.70;;;27.30;1.00;;;;;;5096070;28;20192;-46
2023/07/30 12:46:19;;;;;;;3.40;3.07;;;26.70;1.00;;;;;;5077791;28;20438;-46
2023/07/30 12:48:44;;;;;;;2.87;2.60;;;26.40;1.00;;;;;;5096029;28;20519;-47
2023/07/30 12:51:11;;;;;;;2.63;2.37;;;26.10;1.00;;;;;;5096380;28;20521;-45
2023/07/30 12:53:37;;;;;;;3.60;2.30;;;25.70;1.00;;;;;;5061313;28;20602;-44